Главная страница
METAR-TAF:

METAR-TAF

Аэропорты :

Амман, Иордания

широта: 31-59N, долгота: 035-59E, высота над уровнем моря: 767 м

Текущие метеонаблюдения

Эта сводка был подготовлена 35 минут назад, в 13:00 UTC
Ветер 15 Узел от северо-западный
Температура 29°C
Влажность 40%
Давление 1010 hPa
Видимость: 5000 м
небольшая облачность на высоте 4000 фута
Низовая пыльная метель

METAR: OJAM 141300Z 31015KT 5000 BLDU FEW040 29/14 Q1010 NOSIG

Время: 16:35 (13:35 UTC)

Прогноз

Эта сводка был подготовлена 3 часа и 54 минут назад, в 09:41 UTC
Прогноз действительный с 14-го 12 UTC до 15-го 18 UTC
Ветер 12 Узел от западно-северо-западный
Видимость: 5000 м
небольшая облачность на высоте 3000 фута
мгла
временами
С 14-го 12 UTC до 14-го 17 UTC
Ветер 18 Узел от западно-северо-западный
Видимость: 4000 м
Низовая пыльная метель

TAF: OJAM 140941Z 1412/1518 29012KT 5000 HZ FEW030 TEMPO 1412/1417 30018KT 4000 BLDU

Метеонаблюдения и прогнозы для более 4000 аэропортов (сводки METAR и TAF).

Имеющиеся станции представлены на карте желтыми и красными точками.

Чтобы увидеть название станции, наведите на нее мышь.

Затем щелкните, чтобы увидеть метеонаблюдения и метеопрогнозы.

Управление картой: чтобы увеличить масштаб, щелкните зеленые кнопки с черным крестиком; чтобы уменьшить масштаб, щелкните зеленую кнопку с тире; для просмотра соседних карт щелкайте зеленые стрелки.


METAR-TAF: